Time;durP1;ratioP1;P1;durP2;ratioP2;P2;SDS_P1;SDS_P2;PMS_P1;PMS_P2;Temp;Humidity;BMP_temperature;BMP_pressure;BME280_temperature;BME280_humidity;BME280_pressure;Samples;Min_cycle;Max_cycle;Signal;HPM_P1;HPM_P2
2021/08/17 00:01:40;;;;;;;5.45;1.42;;;25.70;93.40;;;;;;4840381;29;20555;-80
2021/08/17 00:04:06;;;;;;;3.70;1.40;;;25.70;93.60;;;;;;4841639;29;20449;-83
2021/08/17 00:06:32;;;;;;;6.28;1.75;;;25.60;93.70;;;;;;4841497;29;20509;-82
2021/08/17 00:08:57;;;;;;;2.08;1.40;;;25.60;93.90;;;;;;4841479;29;20041;-81
2021/08/17 00:11:23;;;;;;;9.75;1.85;;;25.50;94.00;;;;;;4841403;29;20403;-82
2021/08/17 00:13:49;;;;;;;3.10;1.88;;;25.50;93.80;;;;;;4841464;29;20026;-81
2021/08/17 00:16:15;;;;;;;3.97;1.90;;;25.50;93.80;;;;;;4841443;29;20495;-81
2021/08/17 00:18:41;;;;;;;2.80;1.63;;;25.50;93.80;;;;;;4840256;29;20038;-81
2021/08/17 00:21:07;;;;;;;5.38;2.15;;;25.50;93.80;;;;;;4841237;29;20057;-82
2021/08/17 00:23:33;;;;;;;5.22;1.85;;;25.50;93.70;;;;;;4841399;29;20484;-82
2021/08/17 00:25:59;;;;;;;4.47;1.77;;;25.50;93.50;;;;;;4841308;29;20049;-80
2021/08/17 00:28:24;;;;;;;6.68;1.50;;;25.60;93.60;;;;;;4843159;29;20034;-83
2021/08/17 00:30:50;;;;;;;9.55;1.60;;;25.60;93.60;;;;;;4841322;29;20038;-83
2021/08/17 00:33:16;;;;;;;7.18;2.20;;;25.60;93.80;;;;;;4841319;29;20069;-81
2021/08/17 00:35:41;;;;;;;5.28;2.10;;;25.60;93.90;;;;;;4841411;29;20456;-81
2021/08/17 00:38:07;;;;;;;10.38;1.73;;;25.60;94.00;;;;;;4841673;29;20034;-82
2021/08/17 00:40:33;;;;;;;7.45;2.15;;;25.60;94.10;;;;;;4844873;29;20072;-81
2021/08/17 00:42:59;;;;;;;4.80;1.80;;;25.60;94.00;;;;;;4843279;29;20041;-82
2021/08/17 00:45:27;;;;;;;7.55;2.00;;;25.60;94.00;;;;;;4845634;29;20033;-82
2021/08/17 00:47:56;;;;;;;4.82;1.70;;;25.60;94.30;;;;;;4845269;29;20037;-83
2021/08/17 00:50:34;;;;;;;5.78;1.95;;;25.60;94.10;;;;;;4843831;29;20073;-82
2021/08/17 00:53:00;;;;;;;5.55;1.95;;;25.60;94.20;;;;;;4845044;29;20050;-83
2021/08/17 00:55:31;;;;;;;6.82;1.92;;;25.60;94.90;;;;;;4845369;29;20042;-81
2021/08/17 00:57:57;;;;;;;5.80;1.80;;;25.60;94.80;;;;;;4845074;29;20499;-82
2021/08/17 01:00:24;;;;;;;6.22;2.15;;;25.50;94.90;;;;;;4845081;29;20034;-81
2021/08/17 01:02:49;;;;;;;5.22;1.83;;;25.40;94.90;;;;;;4845642;29;20034;-82
2021/08/17 01:05:18;;;;;;;12.07;2.03;;;25.30;95.20;;;;;;4845067;29;20030;-82
2021/08/17 01:07:44;;;;;;;4.10;1.92;;;25.30;95.40;;;;;;4843548;29;20403;-81
2021/08/17 01:10:11;;;;;;;7.20;2.25;;;25.30;95.30;;;;;;4845351;29;20034;-82
2021/08/17 01:12:37;;;;;;;6.00;1.67;;;25.30;95.40;;;;;;4844988;29;20050;-81
2021/08/17 01:15:04;;;;;;;7.75;2.08;;;25.30;95.40;;;;;;4844637;29;20078;-82
2021/08/17 01:17:29;;;;;;;5.18;2.10;;;25.30;95.20;;;;;;4844612;29;20107;-83
2021/08/17 01:19:55;;;;;;;9.75;1.88;;;25.30;95.30;;;;;;4843664;29;20464;-82
2021/08/17 01:22:22;;;;;;;4.28;2.15;;;25.30;95.30;;;;;;4844966;29;20037;-82
2021/08/17 01:24:49;;;;;;;2.72;1.85;;;25.30;95.30;;;;;;4844801;29;20168;-82
2021/08/17 01:27:14;;;;;;;3.65;1.63;;;25.30;95.10;;;;;;4844505;29;20053;-83
2021/08/17 01:29:41;;;;;;;12.55;2.40;;;25.40;95.00;;;;;;4843334;29;20038;-82
2021/08/17 01:32:08;;;;;;;15.07;2.20;;;25.50;95.10;;;;;;4844532;29;20050;-83
2021/08/17 01:34:34;;;;;;;5.53;2.10;;;25.50;94.80;;;;;;4844727;29;20088;-81
2021/08/17 01:37:00;;;;;;;4.65;2.47;;;25.60;95.80;;;;;;4844539;29;20369;-82
2021/08/17 01:39:25;;;;;;;7.15;2.72;;;25.60;99.50;;;;;;4844441;29;20096;-81
2021/08/17 01:41:52;;;;;;;3.65;1.70;;;25.50;99.90;;;;;;4844326;29;20476;-83
2021/08/17 01:44:17;;;;;;;6.93;3.05;;;25.40;99.90;;;;;;4844315;29;20058;-82
2021/08/17 01:46:44;;;;;;;5.47;2.63;;;25.30;99.90;;;;;;4844321;29;20077;-82
2021/08/17 01:49:11;;;;;;;3.60;1.80;;;25.30;99.90;;;;;;4844379;29;20110;-82
2021/08/17 01:51:37;;;;;;;3.03;2.05;;;25.30;99.90;;;;;;4843346;29;20107;-82
2021/08/17 01:54:07;;;;;;;8.52;2.38;;;25.30;99.90;;;;;;4843844;29;20049;-81
2021/08/17 01:56:33;;;;;;;9.05;2.78;;;25.30;99.90;;;;;;4844532;29;20049;-82
2021/08/17 01:59:01;;;;;;;3.30;2.33;;;25.30;99.90;;;;;;4844138;29;20026;-82
2021/08/17 02:01:26;;;;;;;5.97;2.40;;;25.30;99.90;;;;;;4844044;29;20048;-83
2021/08/17 02:03:52;;;;;;;7.55;2.58;;;25.30;99.90;;;;;;4844041;29;20038;-81
2021/08/17 02:06:19;;;;;;;9.68;2.65;;;25.30;99.90;;;;;;4827524;29;20053;-81
2021/08/17 02:08:45;;;;;;;11.45;3.05;;;25.20;99.90;;;;;;4844091;29;20383;-82
2021/08/17 02:11:10;;;;;;;8.45;2.78;;;25.20;99.90;;;;;;4844140;29;20038;-83
2021/08/17 02:13:36;;;;;;;6.05;2.65;;;25.10;99.90;;;;;;4843764;29;20037;-81
2021/08/17 02:16:02;;;;;;;6.90;3.00;;;25.10;99.90;;;;;;4843834;29;20453;-82
2021/08/17 02:18:32;;;;;;;3.85;2.33;;;25.10;99.90;;;;;;4844045;29;20042;-82
2021/08/17 02:20:59;;;;;;;4.20;2.60;;;25.00;99.90;;;;;;4843642;29;20484;-81
2021/08/17 02:23:26;;;;;;;6.93;3.08;;;25.10;99.90;;;;;;4842493;29;20042;-83
2021/08/17 02:25:52;;;;;;;9.88;2.67;;;25.10;99.90;;;;;;4843615;29;20030;-82
2021/08/17 02:28:19;;;;;;;6.57;2.90;;;25.10;99.90;;;;;;4843965;29;20025;-82
2021/08/17 02:30:50;;;;;;;6.10;2.40;;;25.20;99.90;;;;;;4843372;29;20061;-82
2021/08/17 02:33:16;;;;;;;6.85;2.03;;;25.10;99.90;;;;;;4843265;29;20053;-82
2021/08/17 02:35:43;;;;;;;6.15;2.10;;;25.10;99.90;;;;;;4843396;29;20494;-82
2021/08/17 02:38:10;;;;;;;9.07;2.70;;;25.10;99.90;;;;;;4842266;29;20038;-80
2021/08/17 02:40:36;;;;;;;4.15;2.30;;;25.10;99.90;;;;;;4843224;29;20041;-82
2021/08/17 02:43:02;;;;;;;4.65;2.15;;;25.10;99.90;;;;;;4843252;29;20512;-83
2021/08/17 02:45:28;;;;;;;7.50;2.45;;;25.00;99.90;;;;;;4843214;29;20109;-82
2021/08/17 02:47:58;;;;;;;5.05;2.20;;;25.00;99.90;;;;;;4843076;29;20081;-84
2021/08/17 02:50:24;;;;;;;2.83;1.90;;;24.90;99.90;;;;;;4842311;29;20067;-82
2021/08/17 02:52:51;;;;;;;3.47;2.10;;;24.80;99.90;;;;;;4842078;29;20136;-81
2021/08/17 02:55:16;;;;;;;8.27;1.73;;;24.60;99.30;;;;;;4842330;29;20577;-81
2021/08/17 02:57:50;;;;;;;4.32;1.90;;;24.40;99.40;;;;;;4842194;29;20071;-82
2021/08/17 03:00:17;;;;;;;7.88;1.60;;;24.20;99.50;;;;;;4842222;29;20510;-81
2021/08/17 03:02:43;;;;;;;4.28;1.70;;;24.10;99.50;;;;;;4841871;29;20407;-82
2021/08/17 03:05:09;;;;;;;2.65;1.70;;;24.00;99.50;;;;;;4842144;29;20034;-82
2021/08/17 03:07:35;;;;;;;5.80;1.70;;;24.00;99.50;;;;;;4825684;29;20138;-82
2021/08/17 03:10:00;;;;;;;6.10;1.52;;;23.90;99.40;;;;;;4842698;29;20072;-81
2021/08/17 03:12:26;;;;;;;6.70;1.92;;;23.90;99.30;;;;;;4841902;29;20053;-81
2021/08/17 03:14:52;;;;;;;8.48;1.45;;;23.90;99.20;;;;;;4841948;29;20458;-81
2021/08/17 03:17:17;;;;;;;15.45;1.75;;;23.80;99.00;;;;;;4841950;29;20042;-81
2021/08/17 03:19:43;;;;;;;7.38;1.48;;;23.80;99.00;;;;;;4841907;29;20060;-81
2021/08/17 03:22:09;;;;;;;7.22;1.60;;;23.80;98.80;;;;;;4841981;29;20046;-82
2021/08/17 03:24:35;;;;;;;9.40;1.48;;;23.80;98.70;;;;;;4841921;29;20033;-83
2021/08/17 03:27:01;;;;;;;4.82;1.40;;;23.70;98.50;;;;;;4841723;29;20049;-83
2021/08/17 03:29:26;;;;;;;6.93;1.67;;;23.70;98.50;;;;;;4841861;29;20037;-80
2021/08/17 03:31:52;;;;;;;5.43;1.63;;;23.70;98.30;;;;;;4841784;29;20121;-81
2021/08/17 03:34:18;;;;;;;5.20;1.33;;;23.70;98.10;;;;;;4841635;29;20427;-82
2021/08/17 03:36:43;;;;;;;18.60;1.92;;;23.70;97.90;;;;;;4841827;29;20460;-84
2021/08/17 03:39:09;;;;;;;10.15;1.45;;;23.70;97.60;;;;;;4841699;29;20045;-82
2021/08/17 03:41:35;;;;;;;4.30;1.50;;;23.70;97.50;;;;;;4841779;29;20121;-83
2021/08/17 03:44:01;;;;;;;3.35;1.38;;;23.70;97.30;;;;;;4841674;29;20400;-79
2021/08/17 03:46:27;;;;;;;3.13;1.30;;;23.70;97.20;;;;;;4840363;29;20563;-81
2021/08/17 03:48:53;;;;;;;4.25;1.38;;;23.70;97.00;;;;;;4841588;29;20034;-83
2021/08/17 03:51:18;;;;;;;2.33;1.10;;;23.70;97.00;;;;;;4841590;29;20194;-80
2021/08/17 03:53:44;;;;;;;3.72;1.52;;;23.70;97.00;;;;;;4841680;29;20174;-82
2021/08/17 03:56:10;;;;;;;1.63;1.25;;;23.70;96.90;;;;;;4841692;29;20038;-82
2021/08/17 03:58:35;;;;;;;6.68;1.58;;;23.70;96.90;;;;;;4841866;29;20062;-82
2021/08/17 04:01:01;;;;;;;5.72;1.60;;;23.70;97.00;;;;;;4841486;29;20519;-82
2021/08/17 04:03:27;;;;;;;4.22;1.63;;;23.70;97.10;;;;;;4840162;29;20030;-80
2021/08/17 04:05:52;;;;;;;6.63;1.50;;;23.70;97.20;;;;;;4841440;29;20117;-80
2021/08/17 04:08:18;;;;;;;5.05;2.25;;;23.70;97.40;;;;;;4841616;29;20030;-81
2021/08/17 04:10:46;;;;;;;4.38;1.83;;;23.70;97.60;;;;;;4841457;29;20372;-81
2021/08/17 04:13:12;;;;;;;4.65;1.85;;;23.70;98.00;;;;;;4840505;29;20085;-81
2021/08/17 04:15:38;;;;;;;2.67;1.33;;;23.60;98.20;;;;;;4845090;29;20480;-84
2021/08/17 04:18:04;;;;;;;4.88;2.10;;;23.60;98.40;;;;;;4845199;29;20071;-82
2021/08/17 04:20:31;;;;;;;7.10;1.85;;;23.50;98.70;;;;;;4845041;29;20070;-82
2021/08/17 04:22:57;;;;;;;4.15;1.45;;;23.50;98.90;;;;;;4843566;29;20042;-81
2021/08/17 04:25:23;;;;;;;5.55;1.90;;;23.40;99.30;;;;;;4844984;29;20034;-81
2021/08/17 04:27:48;;;;;;;9.10;2.55;;;23.50;99.10;;;;;;4844944;29;20506;-81
2021/08/17 04:30:14;;;;;;;8.57;1.58;;;23.40;99.30;;;;;;4843533;29;20509;-82
2021/08/17 04:32:40;;;;;;;7.88;1.85;;;23.30;99.50;;;;;;4844619;29;20050;-81
2021/08/17 04:35:07;;;;;;;5.72;1.75;;;23.20;99.70;;;;;;4844738;29;20484;-81
2021/08/17 04:37:32;;;;;;;9.85;2.22;;;23.30;99.90;;;;;;4844717;29;20042;-83
2021/08/17 04:39:58;;;;;;;8.18;2.00;;;23.20;99.90;;;;;;4844688;29;20086;-82
2021/08/17 04:42:24;;;;;;;11.93;2.28;;;23.20;99.90;;;;;;4844634;29;20042;-82
2021/08/17 04:44:50;;;;;;;13.23;2.08;;;23.20;99.90;;;;;;4844390;29;20109;-83
2021/08/17 04:47:15;;;;;;;6.47;1.98;;;23.20;99.90;;;;;;4844462;29;20045;-81
2021/08/17 04:49:41;;;;;;;5.93;2.38;;;23.20;99.90;;;;;;4844584;29;20034;-81
2021/08/17 04:52:06;;;;;;;13.15;3.08;;;23.10;99.90;;;;;;4844134;29;20539;-83
2021/08/17 04:54:32;;;;;;;3.35;2.17;;;23.10;99.90;;;;;;4844248;29;20396;-83
2021/08/17 04:56:58;;;;;;;8.82;2.53;;;23.10;99.90;;;;;;4844928;29;20110;-83
2021/08/17 04:59:24;;;;;;;10.10;2.53;;;23.00;99.90;;;;;;4845186;29;20038;-81
2021/08/17 05:01:49;;;;;;;7.45;2.40;;;23.00;99.90;;;;;;4844487;29;20458;-83
2021/08/17 05:04:16;;;;;;;5.35;2.20;;;23.00;99.90;;;;;;4844652;29;20022;-85
2021/08/17 05:06:44;;;;;;;15.88;2.70;;;23.10;99.90;;;;;;4844289;29;20042;-88
2021/08/17 05:09:10;;;;;;;12.70;2.17;;;23.10;99.90;;;;;;4844341;29;20030;-88
2021/08/17 05:11:35;;;;;;;4.60;2.08;;;23.10;99.90;;;;;;4844719;29;20483;-88
2021/08/17 05:14:01;;;;;;;3.88;2.30;;;23.20;99.90;;;;;;4845208;29;20105;-88
2021/08/17 05:16:27;;;;;;;8.05;1.95;;;23.30;99.90;;;;;;4845004;29;20093;-88
2021/08/17 05:18:52;;;;;;;2.85;1.88;;;23.30;99.90;;;;;;4845142;29;20038;-89
2021/08/17 05:21:18;;;;;;;5.00;1.63;;;23.70;99.90;;;;;;4844974;29;20122;-85
2021/08/17 05:23:44;;;;;;;6.05;1.70;;;24.30;98.90;;;;;;4844752;29;20039;-88
2021/08/17 05:26:10;;;;;;;9.52;1.90;;;24.60;97.80;;;;;;4844334;29;20038;-86
2021/08/17 05:28:35;;;;;;;4.07;1.42;;;24.40;97.70;;;;;;4844794;29;20034;-88
2021/08/17 05:31:01;;;;;;;5.68;1.48;;;24.00;98.00;;;;;;4844703;29;20413;-89
2021/08/17 05:33:27;;;;;;;3.55;1.17;;;23.90;98.10;;;;;;4844525;29;20121;-87
2021/08/17 05:35:52;;;;;;;5.78;1.70;;;23.70;98.30;;;;;;4843682;29;20038;-88
2021/08/17 05:38:18;;;;;;;8.18;1.88;;;23.70;98.50;;;;;;4844595;29;20484;-82
2021/08/17 05:40:44;;;;;;;10.70;2.05;;;23.60;98.70;;;;;;4844325;29;20073;-88
2021/08/17 05:43:09;;;;;;;6.88;1.30;;;23.60;98.70;;;;;;4844450;29;20058;-80
2021/08/17 05:45:35;;;;;;;7.53;1.40;;;23.60;98.50;;;;;;4844219;29;20034;-86
2021/08/17 05:48:01;;;;;;;8.25;1.45;;;23.60;98.40;;;;;;4844447;29;20073;-84
2021/08/17 05:50:27;;;;;;;14.27;1.63;;;23.50;98.20;;;;;;4844106;29;20068;-86
2021/08/17 05:52:52;;;;;;;7.65;1.63;;;23.60;98.10;;;;;;4844329;29;20483;-86
2021/08/17 05:55:18;;;;;;;3.10;1.45;;;23.50;98.00;;;;;;4847240;29;20174;-81
2021/08/17 05:57:58;;;;;;;14.75;1.33;;;23.60;98.00;;;;;;4843893;29;20049;-86
2021/08/17 06:00:25;;;;;;;11.05;1.58;;;23.60;97.70;;;;;;4845022;29;20037;-87
2021/08/17 06:02:50;;;;;;;8.13;1.65;;;23.60;97.40;;;;;;4843889;29;20038;-86
2021/08/17 06:05:16;;;;;;;4.65;1.33;;;23.50;96.80;;;;;;4844049;29;20045;-88
2021/08/17 06:07:46;;;;;;;1.90;1.17;;;23.50;96.50;;;;;;4844359;29;20094;-86
2021/08/17 06:10:12;;;;;;;3.28;1.30;;;23.50;96.70;;;;;;4843735;29;20049;-86
2021/08/17 06:12:38;;;;;;;15.57;1.40;;;23.50;96.70;;;;;;4843628;29;20419;-86
2021/08/17 06:15:04;;;;;;;2.45;1.17;;;23.50;97.00;;;;;;4843682;29;20472;-86
2021/08/17 06:17:30;;;;;;;8.65;1.00;;;23.50;97.30;;;;;;4843949;29;20491;-88
2021/08/17 06:19:55;;;;;;;16.60;1.63;;;23.60;97.80;;;;;;4844009;29;20113;-88
2021/08/17 06:22:21;;;;;;;2.10;1.30;;;23.60;98.00;;;;;;4843785;29;20042;-82
2021/08/17 06:24:46;;;;;;;4.95;0.88;;;23.60;98.30;;;;;;4843539;29;20503;-88
2021/08/17 06:27:12;;;;;;;9.05;1.02;;;23.70;98.30;;;;;;4843451;29;20038;-85
2021/08/17 06:29:38;;;;;;;3.47;0.88;;;23.70;98.30;;;;;;4843418;29;20496;-88
2021/08/17 06:32:04;;;;;;;4.30;0.88;;;23.70;98.30;;;;;;4843699;29;20488;-83
2021/08/17 06:34:30;;;;;;;6.22;0.82;;;23.80;98.30;;;;;;4843439;29;20061;-84
2021/08/17 06:36:55;;;;;;;11.82;1.00;;;23.80;98.30;;;;;;4843069;29;20042;-87
2021/08/17 06:39:21;;;;;;;2.28;0.90;;;23.90;98.00;;;;;;4843765;29;20058;-84
2021/08/17 06:41:48;;;;;;;6.10;0.55;;;24.00;97.90;;;;;;4843215;29;20078;-89
2021/08/17 06:44:14;;;;;;;3.22;0.80;;;24.10;97.50;;;;;;4843431;29;20064;-85
2021/08/17 06:46:39;;;;;;;3.60;0.60;;;24.20;97.30;;;;;;4842134;29;20038;-85
2021/08/17 06:49:05;;;;;;;0.57;0.47;;;24.30;97.10;;;;;;4843384;29;20036;-87
2021/08/17 06:51:31;;;;;;;2.08;0.73;;;24.50;96.60;;;;;;4843162;29;20050;-82
2021/08/17 06:53:56;;;;;;;3.53;0.93;;;24.60;96.40;;;;;;4843142;29;20057;-87
2021/08/17 06:56:22;;;;;;;7.15;1.17;;;24.70;96.30;;;;;;4843325;29;20042;-88
2021/08/17 06:58:48;;;;;;;7.57;1.23;;;24.60;96.10;;;;;;4843372;29;20058;-88
2021/08/17 07:01:14;;;;;;;6.97;1.20;;;24.40;96.30;;;;;;4843265;29;20073;-83
2021/08/17 07:03:40;;;;;;;8.23;0.90;;;24.50;96.20;;;;;;4841615;29;20086;-89
2021/08/17 07:06:05;;;;;;;1.75;0.68;;;24.40;95.90;;;;;;4843236;29;20082;-89
2021/08/17 07:08:31;;;;;;;1.95;0.65;;;24.40;96.00;;;;;;4842943;29;20040;-86
2021/08/17 07:10:57;;;;;;;7.28;1.45;;;24.40;95.80;;;;;;4842450;29;20037;-84
2021/08/17 07:13:24;;;;;;;2.40;1.02;;;24.50;95.70;;;;;;4842068;29;20038;-82
2021/08/17 07:15:50;;;;;;;2.42;0.90;;;24.40;95.50;;;;;;4841805;29;20070;-82
2021/08/17 07:18:16;;;;;;;5.22;1.13;;;24.60;95.10;;;;;;4841802;29;20124;-84
2021/08/17 07:20:42;;;;;;;12.05;1.60;;;24.70;94.60;;;;;;4841817;29;20122;-81
2021/08/17 07:23:08;;;;;;;8.45;1.30;;;25.00;94.10;;;;;;4841768;29;20041;-80
2021/08/17 07:25:35;;;;;;;3.85;1.30;;;26.40;92.40;;;;;;4841607;29;20391;-83
2021/08/17 07:28:01;;;;;;;6.80;1.35;;;28.60;89.90;;;;;;4841919;29;20464;-82
2021/08/17 07:30:27;;;;;;;4.72;1.45;;;30.00;85.50;;;;;;4842096;29;20030;-86
2021/08/17 07:32:52;;;;;;;3.50;1.23;;;30.80;82.90;;;;;;4842279;29;20060;-80
2021/08/17 07:35:20;;;;;;;3.05;1.05;;;31.70;80.60;;;;;;4842532;29;20059;-86
2021/08/17 07:37:48;;;;;;;8.65;1.40;;;32.00;79.30;;;;;;4842540;29;20133;-85
2021/08/17 07:40:15;;;;;;;6.50;1.30;;;32.20;78.80;;;;;;4841264;29;20034;-85
2021/08/17 07:42:41;;;;;;;6.53;1.50;;;32.50;78.10;;;;;;4842558;29;20392;-86
2021/08/17 07:45:09;;;;;;;4.55;1.10;;;31.80;78.20;;;;;;4842458;29;20375;-85
2021/08/17 07:47:35;;;;;;;6.00;1.38;;;30.50;80.40;;;;;;4842613;29;20042;-88
2021/08/17 07:50:01;;;;;;;9.75;1.35;;;29.40;83.10;;;;;;4845915;29;20037;-87
2021/08/17 07:52:26;;;;;;;8.68;1.55;;;28.10;85.70;;;;;;4845892;29;20058;-85
2021/08/17 07:54:52;;;;;;;12.73;1.75;;;27.00;87.50;;;;;;4846865;29;20436;-82
2021/08/17 07:57:18;;;;;;;13.32;1.80;;;26.40;88.50;;;;;;4846253;29;20041;-79
2021/08/17 07:59:43;;;;;;;4.03;1.50;;;26.20;88.70;;;;;;4846297;29;20030;-87
2021/08/17 08:02:09;;;;;;;7.10;1.63;;;26.10;88.50;;;;;;4846124;29;20098;-85
2021/08/17 08:04:35;;;;;;;3.05;1.60;;;25.90;88.80;;;;;;4845976;29;20034;-80
2021/08/17 08:07:00;;;;;;;8.63;1.67;;;25.80;87.80;;;;;;4846769;29;20061;-84
2021/08/17 08:09:26;;;;;;;8.05;1.17;;;26.10;87.50;;;;;;4845415;29;20065;-86
2021/08/17 08:11:52;;;;;;;5.03;1.17;;;26.50;85.70;;;;;;4845693;29;20161;-85
2021/08/17 08:14:17;;;;;;;9.40;1.65;;;27.10;84.10;;;;;;4845972;29;20038;-88
2021/08/17 08:16:43;;;;;;;3.55;1.27;;;28.20;82.10;;;;;;4845824;29;20458;-85
2021/08/17 08:19:09;;;;;;;8.98;1.50;;;29.50;79.30;;;;;;4845979;29;20037;-84
2021/08/17 08:21:34;;;;;;;4.55;1.20;;;29.80;77.50;;;;;;4845977;29;20082;-86
2021/08/17 08:24:01;;;;;;;2.08;1.23;;;30.40;75.70;;;;;;4845561;29;20492;-87
2021/08/17 08:26:27;;;;;;;1.95;1.10;;;30.80;74.90;;;;;;4844618;29;20511;-85
2021/08/17 08:28:53;;;;;;;6.25;1.52;;;30.90;74.20;;;;;;4845684;29;20049;-81
2021/08/17 08:31:20;;;;;;;15.02;1.67;;;31.10;73.20;;;;;;4845554;29;20417;-89
2021/08/17 08:33:45;;;;;;;11.95;1.60;;;31.20;73.30;;;;;;4845221;29;20045;-82
2021/08/17 08:36:11;;;;;;;4.65;1.63;;;30.80;73.30;;;;;;4845487;29;20491;-83
2021/08/17 08:38:37;;;;;;;10.90;1.83;;;29.90;75.00;;;;;;4847714;29;20037;-83
2021/08/17 08:41:03;;;;;;;10.07;1.33;;;28.80;76.70;;;;;;4845722;29;20041;-85
2021/08/17 08:43:29;;;;;;;6.30;1.80;;;27.80;79.60;;;;;;4844796;29;20128;-83
2021/08/17 08:45:55;;;;;;;2.88;1.38;;;27.40;80.20;;;;;;4845750;29;20041;-82
2021/08/17 08:48:22;;;;;;;3.15;1.30;;;27.10;80.70;;;;;;4845549;29;20387;-83
2021/08/17 08:50:49;;;;;;;5.65;1.40;;;26.90;82.00;;;;;;4845705;29;20041;-91
2021/08/17 08:53:16;;;;;;;6.90;1.85;;;26.70;84.20;;;;;;4845197;29;20053;-80
2021/08/17 08:55:43;;;;;;;4.97;1.70;;;26.50;83.50;;;;;;4844979;29;20038;-80
2021/08/17 08:58:09;;;;;;;8.75;1.63;;;26.30;83.80;;;;;;4844550;29;20042;-86
2021/08/17 09:00:34;;;;;;;13.27;1.80;;;26.10;84.70;;;;;;4844175;29;20037;-88
2021/08/17 09:03:00;;;;;;;7.10;1.92;;;26.00;85.50;;;;;;4844647;29;20037;-81
2021/08/17 09:05:26;;;;;;;2.97;1.10;;;25.80;85.10;;;;;;4844977;29;20033;-86
2021/08/17 09:07:53;;;;;;;2.05;1.42;;;25.60;85.60;;;;;;4845061;29;20034;-81
2021/08/17 09:10:28;;;;;;;12.32;1.60;;;25.60;85.00;;;;;;4844648;29;20034;-84
2021/08/17 09:12:57;;;;;;;7.63;1.40;;;25.60;85.50;;;;;;4845089;29;20046;-83
2021/08/17 09:15:32;;;;;;;3.63;1.38;;;25.50;85.60;;;;;;4845187;29;20041;-87
2021/08/17 09:17:58;;;;;;;2.90;1.20;;;25.60;85.50;;;;;;4844084;29;20034;-88
2021/08/17 09:20:36;;;;;;;2.90;1.17;;;25.70;86.00;;;;;;4843909;29;20041;-88
2021/08/17 09:23:25;;;;;;;4.13;1.27;;;25.70;85.40;;;;;;4844192;29;20325;-92
2021/08/17 09:25:53;;;;;;;6.07;1.30;;;25.90;85.30;;;;;;4844342;29;20065;-89
2021/08/17 09:28:36;;;;;;;4.68;1.65;;;26.00;85.00;;;;;;4843831;29;20073;-79
2021/08/17 09:31:32;;;;;;;5.07;1.27;;;26.40;84.80;;;;;;4843736;29;20247;-84
2021/08/17 09:33:58;;;;;;;2.20;1.13;;;26.90;83.70;;;;;;4844287;29;20057;-87
2021/08/17 09:36:23;;;;;;;1.27;0.93;;;27.20;82.50;;;;;;4844826;29;20029;-89
2021/08/17 09:38:49;;;;;;;8.50;1.42;;;27.30;82.50;;;;;;4844397;29;20388;-81
2021/08/17 09:41:23;;;;;;;4.00;1.10;;;27.40;83.30;;;;;;4844594;29;20106;-88
2021/08/17 09:44:02;;;;;;;2.70;1.08;;;27.70;82.40;;;;;;4844742;29;20049;-84
2021/08/17 09:46:37;;;;;;;2.00;1.02;;;27.90;81.50;;;;;;4844526;29;20421;-89
2021/08/17 09:49:26;;;;;;;1.85;1.08;;;27.70;81.40;;;;;;4844303;29;20120;-81
2021/08/17 09:51:56;;;;;;;2.42;1.10;;;27.40;81.50;;;;;;4844559;29;20056;-89
2021/08/17 09:54:24;;;;;;;5.28;1.05;;;27.30;81.10;;;;;;4843791;29;20042;-86
2021/08/17 09:57:00;;;;;;;3.83;1.10;;;27.20;81.20;;;;;;4844132;29;20506;-81
2021/08/17 09:59:28;;;;;;;1.85;0.90;;;27.30;82.00;;;;;;4843031;29;20108;-92
2021/08/17 10:01:54;;;;;;;1.65;0.90;;;27.50;81.00;;;;;;4844284;29;20067;-81
2021/08/17 10:04:22;;;;;;;1.48;0.73;;;27.50;80.90;;;;;;4844349;29;20040;-84
2021/08/17 10:06:54;;;;;;;4.25;1.20;;;27.70;80.40;;;;;;4844528;29;20057;-89
2021/08/17 10:09:21;;;;;;;;;;;27.80;80.70;;;;;;4843350;29;20487;-87
2021/08/17 10:11:47;;;;;;;2.47;1.17;;;27.70;79.50;;;;;;4841962;29;19920;-82
2021/08/17 10:14:14;;;;;;;1.00;0.75;;;27.60;79.70;;;;;;4842348;29;20169;-86
2021/08/17 10:16:43;;;;;;;3.75;0.85;;;27.40;79.90;;;;;;4843270;29;20049;-84
2021/08/17 10:19:11;;;;;;;5.03;1.00;;;27.50;80.40;;;;;;4842566;29;20034;-81
2021/08/17 10:21:41;;;;;;;0.98;0.75;;;27.80;79.70;;;;;;4843385;29;20134;-82
2021/08/17 10:24:27;;;;;;;1.38;0.60;;;28.00;78.90;;;;;;4843612;29;20385;-85
2021/08/17 10:27:17;;;;;;;2.08;0.80;;;27.90;78.80;;;;;;4843560;29;20046;-80
2021/08/17 10:29:55;;;;;;;1.45;0.77;;;27.60;79.80;;;;;;4843421;29;20104;-82
2021/08/17 10:32:54;;;;;;;5.22;1.00;;;27.60;80.10;;;;;;4843596;29;20061;-87
2021/08/17 10:35:32;;;;;;;1.00;0.70;;;27.80;80.10;;;;;;4842965;29;20083;-91
2021/08/17 10:38:07;;;;;;;3.78;0.50;;;27.90;79.90;;;;;;4842358;29;20124;-82
2021/08/17 10:40:51;;;;;;;4.60;0.73;;;28.00;78.60;;;;;;4843527;29;20058;-86
2021/08/17 10:43:19;;;;;;;7.03;0.65;;;28.20;76.90;;;;;;4842782;29;20041;-86
2021/08/17 10:46:06;;;;;;;1.63;0.75;;;28.50;76.80;;;;;;4843136;29;20026;-83
2021/08/17 10:48:49;;;;;;;0.70;0.70;;;28.30;77.40;;;;;;4843267;29;20045;-89
2021/08/17 10:51:18;;;;;;;1.33;0.80;;;28.10;78.40;;;;;;4842865;29;20802;-82
2021/08/17 10:53:59;;;;;;;1.42;0.60;;;28.20;79.30;;;;;;4842928;29;20088;-83
2021/08/17 10:56:29;;;;;;;;;;;28.30;79.50;;;;;;4843807;29;20042;-83
2021/08/17 10:58:56;;;;;;;3.10;1.02;;;28.10;78.80;;;;;;4842554;29;20425;-81
2021/08/17 11:01:32;;;;;;;7.82;1.20;;;27.90;78.80;;;;;;4842843;29;20042;-90
2021/08/17 11:03:59;;;;;;;3.97;0.73;;;27.70;79.20;;;;;;4844062;29;20042;-86
2021/08/17 11:06:48;;;;;;;2.60;0.77;;;27.80;79.30;;;;;;4842389;29;20073;-83
2021/08/17 11:09:18;;;;;;;1.05;0.77;;;27.80;79.10;;;;;;4840992;29;20141;-84
2021/08/17 11:12:03;;;;;;;2.80;0.88;;;27.80;79.30;;;;;;4843107;29;20056;-82
2021/08/17 11:14:31;;;;;;;2.88;0.65;;;27.90;79.40;;;;;;4841077;29;20095;-83
2021/08/17 11:16:58;;;;;;;1.30;0.93;;;27.90;79.40;;;;;;4840995;29;20503;-86
2021/08/17 11:19:29;;;;;;;0.90;0.70;;;27.80;79.90;;;;;;4842527;29;20094;-82
2021/08/17 11:21:57;;;;;;;6.35;1.38;;;27.70;79.60;;;;;;4843674;29;20030;-83
2021/08/17 11:24:30;;;;;;;1.08;0.68;;;27.80;80.00;;;;;;4847231;29;20037;-82
2021/08/17 11:27:06;;;;;;;1.17;0.77;;;27.90;79.40;;;;;;4842697;29;20392;-84
2021/08/17 11:29:47;;;;;;;0.60;0.60;;;28.00;79.20;;;;;;4842102;29;20038;-83
2021/08/17 11:32:34;;;;;;;5.85;0.70;;;27.80;79.30;;;;;;4840885;29;20041;-85
2021/08/17 11:35:10;;;;;;;0.98;0.80;;;27.70;79.50;;;;;;4841811;29;20073;-88
2021/08/17 11:37:38;;;;;;;0.82;0.70;;;27.70;79.20;;;;;;4841980;29;20041;-86
2021/08/17 11:40:06;;;;;;;2.25;1.00;;;27.70;78.00;;;;;;4841901;29;20030;-84
2021/08/17 11:42:35;;;;;;;2.45;1.00;;;27.60;79.00;;;;;;4841714;29;20034;-84
2021/08/17 11:45:07;;;;;;;3.53;0.88;;;27.60;79.10;;;;;;4842163;29;20049;-82
2021/08/17 11:47:33;;;;;;;3.45;1.10;;;27.60;79.50;;;;;;4841660;29;20030;-84
2021/08/17 11:50:03;;;;;;;1.48;0.82;;;27.70;78.50;;;;;;4841591;29;20037;-83
2021/08/17 11:52:50;;;;;;;4.20;0.60;;;27.60;78.40;;;;;;4841531;29;20468;-83
2021/08/17 11:55:20;;;;;;;2.38;1.00;;;27.70;78.00;;;;;;4841752;29;20117;-84
2021/08/17 11:57:48;;;;;;;4.70;0.98;;;27.70;78.30;;;;;;4841351;29;20038;-81
2021/08/17 12:00:29;;;;;;;5.55;1.10;;;27.80;78.00;;;;;;4826119;29;20038;-88
2021/08/17 12:02:57;;;;;;;2.35;0.75;;;27.80;77.10;;;;;;4842803;29;20034;-84
2021/08/17 12:05:25;;;;;;;4.97;0.90;;;27.80;77.00;;;;;;4843024;29;20046;-83
2021/08/17 12:07:53;;;;;;;2.47;0.90;;;27.80;77.00;;;;;;4843399;29;20118;-87
2021/08/17 12:10:26;;;;;;;1.98;1.00;;;27.80;77.10;;;;;;4844096;29;20034;-82
2021/08/17 12:12:57;;;;;;;2.55;1.13;;;27.70;77.30;;;;;;4842308;29;20057;-83
2021/08/17 12:15:40;;;;;;;2.40;0.98;;;27.70;76.60;;;;;;4841838;29;20479;-84
2021/08/17 12:18:20;;;;;;;3.42;1.13;;;27.70;76.60;;;;;;4842509;29;20117;-83
2021/08/17 12:20:57;;;;;;;5.90;0.93;;;27.60;76.40;;;;;;4841883;29;20034;-84
2021/08/17 12:23:27;;;;;;;3.90;1.45;;;27.60;76.60;;;;;;4841521;29;20034;-83
2021/08/17 12:26:09;;;;;;;7.38;1.30;;;27.60;76.60;;;;;;4842147;29;20038;-83
2021/08/17 12:28:36;;;;;;;6.53;1.10;;;27.60;77.30;;;;;;4840601;29;20391;-84
2021/08/17 12:31:11;;;;;;;1.60;0.88;;;27.60;77.40;;;;;;4840809;29;20476;-85
2021/08/17 12:33:54;;;;;;;3.45;0.90;;;27.70;77.10;;;;;;4841735;29;20438;-83
2021/08/17 12:36:25;;;;;;;3.58;1.38;;;27.70;76.50;;;;;;4845589;29;20034;-81
2021/08/17 12:38:51;;;;;;;2.50;1.20;;;27.70;76.50;;;;;;4844917;29;20074;-84
2021/08/17 12:41:38;;;;;;;2.03;1.05;;;27.80;76.20;;;;;;4843450;29;20393;-84
2021/08/17 12:44:22;;;;;;;2.58;0.70;;;27.70;75.10;;;;;;4843539;29;20120;-83
2021/08/17 12:46:58;;;;;;;1.85;0.90;;;27.60;76.00;;;;;;4844982;29;20070;-83
2021/08/17 12:49:34;;;;;;;1.25;0.95;;;27.60;75.50;;;;;;4844981;29;20045;-84
2021/08/17 12:52:21;;;;;;;4.57;1.10;;;27.60;75.40;;;;;;4844407;29;20133;-85